createdAt,value
2022-09-19T00:01:08.477Z,100760.22
2022-09-19T00:03:36.831Z,100736.25
2022-09-19T00:06:04.018Z,100751.91
2022-09-19T00:08:31.394Z,100749.78
2022-09-19T00:11:01.655Z,100726.91
2022-09-19T00:13:28.854Z,100733.22
2022-09-19T00:15:55.647Z,100717.94
2022-09-19T00:18:22.269Z,100758.66
2022-09-19T00:20:50.465Z,100752.72
2022-09-19T00:23:36.170Z,100756.34
2022-09-19T00:26:06.136Z,100735.50
2022-09-19T00:28:32.739Z,100722.84
2022-09-19T00:31:01.403Z,100701.63
2022-09-19T00:33:31.582Z,100750.44
2022-09-19T00:36:04.670Z,100743.41
2022-09-19T00:38:32.345Z,100681.78
2022-09-19T00:40:59.400Z,100729.34
2022-09-19T00:43:44.784Z,100734.09
2022-09-19T00:46:11.481Z,100734.50
2022-09-19T00:48:42.702Z,100737.13
2022-09-19T00:51:21.075Z,100737.34
2022-09-19T00:53:49.327Z,100713.38
2022-09-19T00:56:19.183Z,100710.56
2022-09-19T00:58:47.337Z,100714.06
2022-09-19T01:01:16.193Z,100704.25
2022-09-19T01:03:46.401Z,100709.41
2022-09-19T01:06:44.040Z,100727.19
2022-09-19T01:09:44.786Z,100729.00
2022-09-19T01:12:20.706Z,100731.50
2022-09-19T01:15:39.720Z,100726.78
2022-09-19T01:18:07.676Z,100714.03
2022-09-19T01:20:53.492Z,100729.78
2022-09-19T01:23:51.554Z,100723.56
2022-09-19T01:26:43.546Z,100670.31
2022-09-19T01:29:13.843Z,100722.41
2022-09-19T01:31:49.657Z,100704.91
2022-09-19T01:34:33.461Z,100625.69
2022-09-19T01:37:13.557Z,100653.13
2022-09-19T01:39:43.689Z,100715.63
2022-09-19T01:42:14.020Z,100616.69
2022-09-19T01:44:40.555Z,100688.13
2022-09-19T01:47:24.218Z,100696.97
2022-09-19T01:50:11.617Z,100650.69
2022-09-19T01:53:26.285Z,100691.72
2022-09-19T01:56:11.240Z,100696.09
2022-09-19T01:58:49.434Z,100666.34
2022-09-19T02:01:46.242Z,100638.88
2022-09-19T02:04:22.325Z,100674.78
2022-09-19T02:07:08.260Z,100670.03
2022-09-19T02:09:38.164Z,100680.34
2022-09-19T02:12:08.522Z,100663.72
2022-09-19T02:14:37.636Z,100664.13
2022-09-19T02:17:10.766Z,100644.34
2022-09-19T02:19:50.034Z,100672.69
2022-09-19T02:22:28.280Z,100668.28
2022-09-19T02:25:00.194Z,100649.34
2022-09-19T02:27:37.073Z,100626.94
2022-09-19T02:30:09.186Z,100653.56
2022-09-19T02:32:37.198Z,100649.84
2022-09-19T02:35:06.558Z,100638.22
2022-09-19T02:37:40.964Z,100657.50
2022-09-19T02:40:17.681Z,100656.06
2022-09-19T02:43:03.656Z,100646.03
2022-09-19T02:45:33.692Z,100651.75
2022-09-19T02:48:09.532Z,100559.69
2022-09-19T02:50:40.212Z,100645.88
2022-09-19T02:53:13.758Z,100590.91
2022-09-19T02:55:48.818Z,100601.66
2022-09-19T02:58:17.867Z,100586.22
2022-09-19T03:00:53.487Z,100639.28
2022-09-19T03:03:45.120Z,100643.19
2022-09-19T03:06:15.328Z,100627.13
2022-09-19T03:08:46.403Z,100623.56
2022-09-19T03:11:17.524Z,100631.28
2022-09-19T03:13:44.534Z,100643.44
2022-09-19T03:16:19.287Z,100556.09
2022-09-19T03:18:47.927Z,100560.19
2022-09-19T03:21:21.538Z,100589.44
2022-09-19T03:23:50.928Z,100546.38
2022-09-19T03:26:26.419Z,100412.34
2022-09-19T03:28:56.005Z,100616.34
2022-09-19T03:31:23.960Z,100615.72
2022-09-19T03:33:52.360Z,100383.84
2022-09-19T03:36:19.637Z,100594.31
2022-09-19T03:38:46.294Z,100611.41
2022-09-19T03:41:14.552Z,100579.84
2022-09-19T03:43:43.705Z,100603.81
2022-09-19T03:46:15.852Z,100602.00
2022-09-19T03:48:45.773Z,100608.31
2022-09-19T03:51:16.419Z,100588.63
2022-09-19T03:53:46.290Z,100584.78
2022-09-19T03:56:14.603Z,100604.03
2022-09-19T03:58:42.704Z,100607.13
2022-09-19T04:01:10.059Z,100620.66
2022-09-19T04:03:38.794Z,100621.47
2022-09-19T04:06:05.932Z,100575.28
2022-09-19T04:08:32.976Z,100617.97
2022-09-19T04:11:00.186Z,100626.22
2022-09-19T04:13:29.345Z,100617.50
2022-09-19T04:15:55.910Z,100595.41
2022-09-19T04:18:22.692Z,100570.19
2022-09-19T04:20:52.105Z,100614.97
2022-09-19T04:23:19.382Z,100560.19
2022-09-19T04:25:47.695Z,100627.47
2022-09-19T04:28:18.046Z,100606.81
2022-09-19T04:30:45.001Z,100614.53
2022-09-19T04:33:13.831Z,100613.09
2022-09-19T04:35:44.423Z,100626.00
2022-09-19T04:38:14.645Z,100642.34
2022-09-19T04:40:43.703Z,100648.66
2022-09-19T04:43:12.986Z,100568.25
2022-09-19T04:45:44.199Z,100662.06
2022-09-19T04:48:11.246Z,100659.66
2022-09-19T04:50:37.849Z,100659.66
2022-09-19T04:53:04.904Z,100663.69
2022-09-19T04:55:36.354Z,100591.00
2022-09-19T04:58:03.645Z,100638.28
2022-09-19T05:00:42.389Z,100632.34
2022-09-19T05:03:13.160Z,100673.59
2022-09-19T05:05:51.497Z,100627.84
2022-09-19T05:08:27.440Z,100678.16
2022-09-19T05:11:00.016Z,100617.22
2022-09-19T05:13:29.322Z,100672.28
2022-09-19T05:15:56.939Z,100677.75
2022-09-19T05:18:24.170Z,100688.91
2022-09-19T05:20:53.214Z,100671.63
2022-09-19T05:23:21.189Z,100691.78
2022-09-19T05:25:47.723Z,100672.34
2022-09-19T05:28:14.263Z,100701.97
2022-09-19T05:30:47.760Z,100716.47
2022-09-19T05:33:14.372Z,100715.16
2022-09-19T05:35:41.469Z,100717.38
2022-09-19T05:38:08.266Z,100720.69
2022-09-19T05:40:37.481Z,100723.78
2022-09-19T05:43:04.250Z,100736.31
2022-09-19T05:45:32.427Z,100718.97
2022-09-19T05:48:07.214Z,100732.13
2022-09-19T05:50:34.536Z,100741.06
2022-09-19T05:53:20.229Z,100732.66
2022-09-19T05:55:47.310Z,100741.97
2022-09-19T05:58:18.123Z,100727.53
2022-09-19T06:00:45.036Z,100745.19
2022-09-19T06:03:17.480Z,100750.91
2022-09-19T06:05:46.285Z,100751.19
2022-09-19T06:08:13.132Z,100724.38
2022-09-19T06:10:42.006Z,100747.41
2022-09-19T06:13:12.979Z,100744.63
2022-09-19T06:15:39.523Z,100765.88
2022-09-19T06:18:07.424Z,100755.78
2022-09-19T06:20:34.085Z,100742.72
2022-09-19T06:23:03.096Z,100756.69
2022-09-19T06:25:37.201Z,100764.97
2022-09-19T06:28:07.842Z,100767.41
2022-09-19T06:30:35.138Z,100742.78
2022-09-19T06:33:01.707Z,100765.25
2022-09-19T06:35:32.675Z,100753.31
2022-09-19T06:38:01.368Z,100758.97
2022-09-19T06:40:30.230Z,100672.41
2022-09-19T06:43:03.709Z,100773.63
2022-09-19T06:45:32.127Z,100774.13
2022-09-19T06:47:59.648Z,100771.31
2022-09-19T06:50:26.917Z,100765.66
2022-09-19T06:52:54.210Z,100750.56
2022-09-19T06:55:20.768Z,100775.44
2022-09-19T06:58:04.049Z,100781.81
2022-09-19T07:00:36.454Z,100730.19
2022-09-19T07:03:15.178Z,100781.34
2022-09-19T07:05:43.672Z,100791.53
2022-09-19T07:08:12.982Z,100785.38
2022-09-19T07:10:39.548Z,100772.13
2022-09-19T07:13:07.375Z,100771.91
2022-09-19T07:15:35.862Z,100787.38
2022-09-19T07:18:03.102Z,100778.50
2022-09-19T07:20:30.143Z,100743.31
2022-09-19T07:23:01.750Z,100782.03
2022-09-19T07:25:29.934Z,100792.91
2022-09-19T07:28:02.214Z,100797.34
2022-09-19T07:30:31.874Z,100805.06
2022-09-19T07:32:59.622Z,100775.34
2022-09-19T07:35:32.545Z,100777.47
2022-09-19T07:38:01.495Z,100801.25
2022-09-19T07:40:28.680Z,100822.72
2022-09-19T07:43:03.088Z,100815.47
2022-09-19T07:45:35.410Z,100826.75
2022-09-19T07:48:03.509Z,100825.47
2022-09-19T07:50:31.011Z,100827.59
2022-09-19T07:53:12.605Z,100840.53
2022-09-19T07:55:39.488Z,100845.56
2022-09-19T07:58:06.755Z,100846.84
2022-09-19T08:00:38.724Z,100845.34
2022-09-19T08:03:11.065Z,100853.97
2022-09-19T08:05:40.359Z,100859.78
2022-09-19T08:08:09.136Z,100865.88
2022-09-19T08:10:35.731Z,100859.72
2022-09-19T08:13:03.705Z,100822.75
2022-09-19T08:15:31.326Z,100852.50
2022-09-19T08:18:08.643Z,100864.41
2022-09-19T08:20:40.749Z,100795.97
2022-09-19T08:23:10.283Z,100864.41
2022-09-19T08:25:43.964Z,100863.66
2022-09-19T08:28:11.317Z,100859.47
2022-09-19T08:30:38.119Z,100866.53
2022-09-19T08:33:12.149Z,100867.63
2022-09-19T08:35:40.889Z,100878.25
2022-09-19T08:38:09.303Z,100863.72
2022-09-19T08:40:42.078Z,100874.41
2022-09-19T08:43:10.937Z,100875.88
2022-09-19T08:46:02.244Z,100859.25
2022-09-19T08:48:50.881Z,100879.94
2022-09-19T08:51:27.504Z,100878.88
2022-09-19T08:54:01.621Z,100879.78
2022-09-19T08:56:29.456Z,100882.28
2022-09-19T08:59:02.566Z,100895.19
2022-09-19T09:01:36.060Z,100884.44
2022-09-19T09:04:38.230Z,100900.66
2022-09-19T09:07:35.939Z,100874.00
2022-09-19T09:10:25.291Z,100840.53
2022-09-19T09:13:12.160Z,100863.66
2022-09-19T09:16:25.619Z,100916.34
2022-09-19T09:19:10.512Z,100905.78
2022-09-19T09:21:51.274Z,100829.59
2022-09-19T09:24:34.521Z,100873.53
2022-09-19T09:27:05.520Z,100889.97
2022-09-19T09:29:39.154Z,100906.41
2022-09-19T09:32:17.100Z,100914.53
2022-09-19T09:35:15.997Z,100894.56
2022-09-19T09:37:49.590Z,100900.56
2022-09-19T09:40:45.643Z,100904.88
2022-09-19T09:43:15.853Z,100905.50
2022-09-19T09:45:50.381Z,100906.69
2022-09-19T09:48:25.600Z,100752.38
2022-09-19T09:50:52.598Z,100914.72
2022-09-19T09:53:50.219Z,100895.09
2022-09-19T09:56:50.991Z,100903.31
2022-09-19T10:00:00.888Z,100904.19
2022-09-19T10:03:03.650Z,100907.28
2022-09-19T10:05:40.243Z,100908.44
2022-09-19T10:08:22.317Z,100899.81
2022-09-19T10:10:49.117Z,100918.31
2022-09-19T10:13:28.753Z,100900.50
2022-09-19T10:15:57.418Z,100923.34
2022-09-19T10:18:29.458Z,100921.69
2022-09-19T10:20:56.847Z,100910.91
2022-09-19T10:23:31.278Z,100885.56
2022-09-19T10:26:04.415Z,100846.91
2022-09-19T10:28:47.792Z,100920.19
2022-09-19T10:31:24.591Z,100910.50
2022-09-19T10:33:52.058Z,100905.94
2022-09-19T10:36:22.158Z,100893.78
2022-09-19T10:38:56.051Z,100912.84
2022-09-19T10:41:27.084Z,100908.91
2022-09-19T10:44:00.490Z,100905.59
2022-09-19T10:46:37.071Z,100893.44
2022-09-19T10:49:20.059Z,100906.94
2022-09-19T10:51:48.756Z,100913.00
2022-09-19T10:54:44.225Z,100921.56
2022-09-19T10:57:48.828Z,100918.25
2022-09-19T11:00:45.441Z,100913.38
2022-09-19T11:03:41.475Z,100909.75
2022-09-19T11:06:18.046Z,100904.56
2022-09-19T11:08:46.538Z,100885.13
2022-09-19T11:11:26.897Z,100896.44
2022-09-19T11:14:11.555Z,100919.84
2022-09-19T11:17:10.162Z,100903.41
2022-09-19T11:20:01.682Z,100930.91
2022-09-19T11:22:58.812Z,100928.13
2022-09-19T11:25:50.737Z,100914.41
2022-09-19T11:28:36.203Z,100926.47
2022-09-19T11:34:56.832Z,100926.13
2022-09-19T11:37:52.984Z,100919.97
2022-09-19T11:40:35.152Z,100882.19
2022-09-19T11:44:10.845Z,100910.75
2022-09-19T11:47:00.159Z,100907.63
2022-09-19T11:50:03.967Z,100917.94
2022-09-19T11:53:02.792Z,100896.41
2022-09-19T11:55:45.592Z,100913.66
2022-09-19T11:58:28.982Z,100832.81
2022-09-19T12:01:16.791Z,100882.06
2022-09-19T12:04:21.491Z,100903.28
2022-09-19T12:07:12.818Z,100908.34
2022-09-19T12:09:53.447Z,100910.41
2022-09-19T12:12:23.052Z,100907.16
2022-09-19T12:14:59.380Z,100878.56
2022-09-19T12:17:44.104Z,100876.94
2022-09-19T12:20:19.352Z,100884.91
2022-09-19T12:23:33.907Z,100889.88
2022-09-19T12:26:01.996Z,100853.19
2022-09-19T12:28:34.528Z,100882.34
2022-09-19T12:31:06.032Z,100860.19
2022-09-19T12:33:51.799Z,100858.25
2022-09-19T12:36:59.318Z,100868.22
2022-09-19T12:39:46.651Z,100872.81
2022-09-19T12:42:23.134Z,100843.97
2022-09-19T12:45:00.578Z,100874.94
2022-09-19T12:47:43.153Z,100850.06
2022-09-19T12:50:34.849Z,100864.59
2022-09-19T12:53:10.216Z,100868.00
2022-09-19T12:55:43.785Z,100869.28
2022-09-19T12:58:17.437Z,100865.59
2022-09-19T13:00:46.574Z,100860.75
2022-09-19T13:03:26.874Z,100814.09
2022-09-19T13:06:33.611Z,100860.34
2022-09-19T13:09:19.856Z,100867.16
2022-09-19T13:11:52.630Z,100854.91
2022-09-19T13:14:55.435Z,100861.34
2022-09-19T13:17:43.610Z,100821.06
2022-09-19T13:20:40.849Z,100852.97
2022-09-19T13:23:32.012Z,100819.56
2022-09-19T13:26:04.945Z,100849.34
2022-09-19T13:28:47.780Z,100850.72
2022-09-19T13:31:18.448Z,100850.06
2022-09-19T13:33:50.556Z,100701.78
2022-09-19T13:36:26.124Z,100853.66
2022-09-19T13:39:00.508Z,100841.28
2022-09-19T13:41:52.901Z,100851.03
2022-09-19T13:44:56.451Z,100831.69
2022-09-19T13:47:28.803Z,100837.53
2022-09-19T13:50:18.991Z,100848.31
2022-09-19T13:52:50.489Z,100839.81
2022-09-19T13:55:21.216Z,100845.91
2022-09-19T13:57:50.270Z,100816.81
2022-09-19T14:00:38.330Z,100847.03
2022-09-19T14:03:24.724Z,100848.00
2022-09-19T14:06:15.880Z,100843.25
2022-09-19T14:11:33.596Z,100852.72
2022-09-19T14:14:03.314Z,100828.69
2022-09-19T14:16:38.539Z,100836.53
2022-09-19T14:19:44.317Z,100815.66
2022-09-19T14:22:40.276Z,100837.47
2022-09-19T14:25:19.932Z,100839.41
2022-09-19T14:27:55.733Z,100836.13
2022-09-19T14:30:28.250Z,100819.63
2022-09-19T14:33:17.440Z,100829.97
2022-09-19T14:35:46.891Z,100834.50
2022-09-19T14:38:24.764Z,100838.09
2022-09-19T14:41:13.592Z,100834.44
2022-09-19T14:44:17.742Z,100835.53
2022-09-19T14:47:00.049Z,100804.00
2022-09-19T14:49:40.546Z,100804.44
2022-09-19T14:52:17.201Z,100761.97
2022-09-19T14:54:48.229Z,100814.84
2022-09-19T14:57:17.720Z,100759.28
2022-09-19T14:59:45.712Z,100817.97
2022-09-19T15:02:31.731Z,100825.91
2022-09-19T15:05:04.543Z,100830.63
2022-09-19T15:07:34.349Z,100786.66
2022-09-19T15:10:01.659Z,100826.72
2022-09-19T15:12:35.970Z,100817.44
2022-09-19T15:15:05.513Z,100807.31
2022-09-19T15:17:33.734Z,100736.72
2022-09-19T15:20:13.629Z,100784.06
2022-09-19T15:22:53.178Z,100795.69
2022-09-19T15:25:37.626Z,100831.78
2022-09-19T15:28:24.686Z,100801.72
2022-09-19T15:30:53.033Z,100821.28
2022-09-19T15:33:20.224Z,100830.19
2022-09-19T15:35:48.662Z,100760.94
2022-09-19T15:38:32.531Z,100723.16
2022-09-19T15:41:06.474Z,100817.22
2022-09-19T15:43:38.056Z,100833.59
2022-09-19T15:46:25.794Z,100832.22
2022-09-19T15:48:57.714Z,100726.91
2022-09-19T15:51:29.314Z,100835.97
2022-09-19T15:53:59.013Z,100830.88
2022-09-19T15:56:25.796Z,100711.69
2022-09-19T15:59:01.831Z,100702.84
2022-09-19T16:01:36.045Z,100620.38
2022-09-19T16:04:17.740Z,100726.13
2022-09-19T16:07:09.016Z,100764.69
2022-09-19T16:09:44.008Z,100834.19
2022-09-19T16:12:22.846Z,100842.75
2022-09-19T16:14:57.917Z,100842.00
2022-09-19T16:17:27.308Z,100634.09
2022-09-19T16:19:56.839Z,100731.09
2022-09-19T16:22:25.483Z,100845.56
2022-09-19T16:25:03.730Z,100838.72
2022-09-19T16:27:33.959Z,100834.16
2022-09-19T16:30:02.856Z,100731.75
2022-09-19T16:32:30.980Z,100848.34
2022-09-19T16:35:01.891Z,100812.16
2022-09-19T16:37:37.573Z,100850.91
2022-09-19T16:40:30.563Z,100845.56
2022-09-19T16:42:59.351Z,100826.75
2022-09-19T16:45:41.710Z,100856.47
2022-09-19T16:48:08.851Z,100796.00
2022-09-19T16:50:41.157Z,100839.88
2022-09-19T16:53:13.971Z,100852.16
2022-09-19T16:55:52.153Z,100850.56
2022-09-19T16:58:19.074Z,100856.66
2022-09-19T17:03:26.895Z,100645.19
2022-09-19T17:05:56.271Z,100859.00
2022-09-19T17:08:22.938Z,100870.69
2022-09-19T17:10:49.735Z,100782.41
2022-09-19T17:13:16.318Z,100700.03
2022-09-19T17:15:55.309Z,100850.09
2022-09-19T17:18:22.542Z,100827.97
2022-09-19T17:20:49.102Z,100870.09
2022-09-19T17:23:18.995Z,100891.19
2022-09-19T17:25:54.219Z,100867.84
2022-09-19T17:28:22.259Z,100867.06
2022-09-19T17:30:51.371Z,100879.31
2022-09-19T17:33:19.737Z,100884.94
2022-09-19T17:35:46.544Z,100880.44
2022-09-19T17:38:13.968Z,100872.19
2022-09-19T17:40:44.156Z,100897.34
2022-09-19T17:43:16.952Z,100915.25
2022-09-19T17:45:45.975Z,100874.97
2022-09-19T17:48:14.815Z,100714.69
2022-09-19T17:50:42.551Z,100861.47
2022-09-19T17:53:12.801Z,100921.41
2022-09-19T17:55:39.963Z,100854.50
2022-09-19T17:58:10.203Z,100933.09
2022-09-19T18:00:38.435Z,100730.22
2022-09-19T18:03:20.885Z,100906.97
2022-09-19T18:05:58.642Z,100928.81
2022-09-19T18:08:26.813Z,100940.69
2022-09-19T18:11:01.626Z,100961.53
2022-09-19T18:13:28.183Z,100963.22
2022-09-19T18:15:55.197Z,100843.38
2022-09-19T18:18:22.064Z,100970.09
2022-09-19T18:20:58.316Z,100760.34
2022-09-19T18:23:24.911Z,100960.13
2022-09-19T18:25:56.775Z,100967.00
2022-09-19T18:28:24.833Z,100975.34
2022-09-19T18:30:53.728Z,100962.19
2022-09-19T18:33:20.502Z,100968.66
2022-09-19T18:35:47.504Z,100981.56
2022-09-19T18:38:14.198Z,100940.34
2022-09-19T18:40:44.628Z,100972.63
2022-09-19T18:43:11.748Z,100996.13
2022-09-19T18:45:38.480Z,100968.25
2022-09-19T18:48:05.183Z,101004.69
2022-09-19T18:50:31.984Z,100989.47
2022-09-19T18:52:58.625Z,101005.69
2022-09-19T18:55:25.281Z,100987.38
2022-09-19T18:57:52.029Z,101015.25
2022-09-19T19:00:24.501Z,100965.66
2022-09-19T19:02:53.057Z,101021.28
2022-09-19T19:05:19.654Z,100989.59
2022-09-19T19:07:46.196Z,101001.25
2022-09-19T19:10:12.701Z,101011.06
2022-09-19T19:12:45.656Z,101023.53
2022-09-19T19:15:17.971Z,101003.91
2022-09-19T19:17:48.204Z,101030.81
2022-09-19T19:20:15.675Z,101027.66
2022-09-19T19:22:42.299Z,100942.59
2022-09-19T19:25:09.212Z,100948.59
2022-09-19T19:27:35.769Z,101012.59
2022-09-19T19:30:05.064Z,100901.41
2022-09-19T19:32:31.642Z,101024.25
2022-09-19T19:34:58.395Z,101013.78
2022-09-19T19:37:25.283Z,101030.47
2022-09-19T19:39:51.946Z,100989.75
2022-09-19T19:42:18.531Z,100998.28
2022-09-19T19:44:45.294Z,101027.22
2022-09-19T19:47:11.816Z,101034.50
2022-09-19T19:49:38.359Z,101036.16
2022-09-19T19:52:05.005Z,101031.56
2022-09-19T19:54:32.954Z,101031.97
2022-09-19T19:56:59.488Z,101039.22
2022-09-19T19:59:27.325Z,100995.66
2022-09-19T20:01:54.415Z,100872.59
2022-09-19T20:04:21.710Z,101007.31
2022-09-19T20:06:50.371Z,100987.22
2022-09-19T20:09:17.331Z,101007.19
2022-09-19T20:11:47.650Z,100937.03
2022-09-19T20:14:16.642Z,101038.59
2022-09-19T20:16:47.981Z,101001.88
2022-09-19T20:19:19.355Z,101042.59
2022-09-19T20:21:48.759Z,101037.13
2022-09-19T20:24:24.322Z,101030.25
2022-09-19T20:26:55.713Z,101036.94
2022-09-19T20:29:23.797Z,101040.00
2022-09-19T20:31:54.862Z,101040.41
2022-09-19T20:34:22.607Z,101024.38
2022-09-19T20:36:52.637Z,101057.00
2022-09-19T20:39:19.576Z,100997.09
2022-09-19T20:41:46.673Z,101046.09
2022-09-19T20:44:14.184Z,100993.00
2022-09-19T20:46:43.908Z,100961.72
2022-09-19T20:49:11.456Z,101050.59
2022-09-19T20:51:40.886Z,101048.44
2022-09-19T20:54:29.412Z,100992.50
2022-09-19T20:56:56.267Z,101058.00
2022-09-19T20:59:23.930Z,100862.09
2022-09-19T21:02:10.241Z,101061.53
2022-09-19T21:04:36.827Z,101038.94
2022-09-19T21:07:03.416Z,101040.47
2022-09-19T21:09:29.983Z,101062.53
2022-09-19T21:11:56.647Z,101019.72
2022-09-19T21:14:23.264Z,101045.16
2022-09-19T21:16:49.895Z,101055.97
2022-09-19T21:19:18.124Z,101053.44
2022-09-19T21:21:44.846Z,101054.22
2022-09-19T21:24:11.378Z,101041.38
2022-09-19T21:26:37.878Z,101033.03
2022-09-19T21:29:06.803Z,101061.81
2022-09-19T21:31:35.356Z,101054.13
2022-09-19T21:34:04.497Z,100943.94
2022-09-19T21:36:32.924Z,100985.63
2022-09-19T21:39:00.139Z,101012.56
2022-09-19T21:41:31.742Z,101063.44
2022-09-19T21:43:58.926Z,101066.06
2022-09-19T21:46:29.685Z,101063.09
2022-09-19T21:48:56.973Z,101039.59
2022-09-19T21:51:25.049Z,101064.66
2022-09-19T21:53:54.159Z,101068.75
2022-09-19T21:56:22.044Z,101036.69
2022-09-19T21:58:48.971Z,101079.06
2022-09-19T22:01:17.831Z,101088.00
2022-09-19T22:03:45.104Z,101050.50
2022-09-19T22:06:13.078Z,101001.19
2022-09-19T22:08:44.349Z,101068.28
2022-09-19T22:11:13.314Z,101087.63
2022-09-19T22:13:42.507Z,101067.97
2022-09-19T22:16:12.125Z,101023.56
2022-09-19T22:18:39.238Z,101068.13
2022-09-19T22:21:06.126Z,101067.69
2022-09-19T22:23:34.672Z,101042.47
2022-09-19T22:26:10.067Z,101088.72
2022-09-19T22:28:37.462Z,101079.09
2022-09-19T22:31:10.507Z,101080.63
2022-09-19T22:33:39.604Z,101108.97
2022-09-19T22:36:09.589Z,101103.66
2022-09-19T22:38:36.854Z,101113.41
2022-09-19T22:41:06.160Z,101116.16
2022-09-19T22:43:33.277Z,101053.41
2022-09-19T22:45:59.908Z,101125.50
2022-09-19T22:48:26.930Z,101099.19
2022-09-19T22:50:53.623Z,101081.81
2022-09-19T22:53:21.177Z,101066.97
2022-09-19T22:55:57.207Z,101122.28
2022-09-19T22:58:32.302Z,100956.19
2022-09-19T23:01:24.581Z,101088.56
2022-09-19T23:03:56.330Z,101127.31
2022-09-19T23:06:25.363Z,101121.50
2022-09-19T23:08:56.984Z,101125.19
2022-09-19T23:11:24.468Z,101120.66
2022-09-19T23:13:52.233Z,101051.34
2022-09-19T23:16:27.271Z,101107.28
2022-09-19T23:19:11.839Z,101124.03
2022-09-19T23:21:40.497Z,101121.53
2022-09-19T23:24:08.297Z,100960.25
2022-09-19T23:26:35.443Z,101105.28
2022-09-19T23:29:03.345Z,101074.84
2022-09-19T23:31:30.946Z,101126.91
2022-09-19T23:33:58.474Z,101108.47
2022-09-19T23:36:26.328Z,101054.53
2022-09-19T23:38:55.257Z,101043.88
2022-09-19T23:41:23.302Z,101104.09
2022-09-19T23:43:52.039Z,101136.31
2022-09-19T23:46:20.272Z,101113.56
2022-09-19T23:48:48.309Z,101145.44
2022-09-19T23:51:16.360Z,101141.25
2022-09-19T23:53:43.257Z,101065.38
2022-09-19T23:56:11.737Z,101145.13
2022-09-19T23:58:39.279Z,101130.41
